Time;durP1;ratioP1;P1;durP2;ratioP2;P2;SDS_P1;SDS_P2;PMS_P1;PMS_P2;Temp;Humidity;BMP_temperature;BMP_pressure;BME280_temperature;BME280_humidity;BME280_pressure;Samples;Min_cycle;Max_cycle;Signal;HPM_P1;HPM_P2
2022/04/16 05:02:59;;;;;;;4.03;2.40;;;8.50;94.10;;;;;;6152854;22;1706285;-83
2022/04/16 05:05:32;;;;;;;4.45;2.83;;;8.60;93.70;;;;;;6233493;22;20022;-83
2022/04/16 05:07:59;;;;;;;4.18;2.95;;;8.80;93.20;;;;;;6232584;22;20046;-84
2022/04/16 05:10:33;;;;;;;5.43;2.67;;;8.80;93.10;;;;;;6233922;22;19992;-81
2022/04/16 05:13:07;;;;;;;4.88;2.97;;;8.80;93.20;;;;;;6285905;22;20015;-83
2022/04/16 05:15:33;;;;;;;3.50;2.40;;;8.80;93.20;;;;;;6211748;23;20130;-82
2022/04/16 05:18:01;;;;;;;3.70;2.38;;;8.80;93.30;;;;;;6198050;23;20008;-82
2022/04/16 05:21:01;;;;;;;4.05;2.40;;;8.80;93.30;;;;;;6200797;23;20008;-82
2022/04/16 05:23:39;;;;;;;4.22;2.67;;;8.80;93.30;;;;;;6177942;23;20016;-82
2022/04/16 05:26:25;;;;;;;;;;;;;;;;;;;;;
2022/04/16 05:29:24;;;;;;;4.53;2.88;;;8.90;93.20;;;;;;6222811;23;20016;-82
2022/04/16 05:31:51;;;;;;;;;;;9.00;93.10;;;;;;6221028;23;20023;-82
2022/04/16 05:35:05;;;;;;;;;;;;;;;;;;;;;
2022/04/16 05:41:38;;;;;;;4.47;2.70;;;9.20;92.90;;;;;;6196962;23;20012;-81
2022/04/16 05:44:12;;;;;;;3.70;2.40;;;9.40;92.70;;;;;;6197396;23;20321;-83
2022/04/16 05:46:38;;;;;;;3.63;2.40;;;9.50;92.20;;;;;;6222495;23;20013;-82
2022/04/16 05:49:30;;;;;;;4.43;2.47;;;9.60;92.00;;;;;;6173086;23;20274;-81
2022/04/16 05:55:23;;;;;;;3.90;2.20;;;9.70;91.60;;;;;;6218505;23;20290;-80
2022/04/16 05:58:25;;;;;;;5.32;2.67;;;9.70;91.50;;;;;;6159884;23;20080;-81
2022/04/16 06:00:54;;;;;;;3.80;2.13;;;9.80;91.40;;;;;;6141466;23;20005;-81
2022/04/16 06:11:08;;;;;;;4.15;2.50;;;9.80;91.20;;;;;;5961989;24;20367;-81
2022/04/16 06:13:34;;;;;;;5.10;2.70;;;9.80;91.30;;;;;;5988922;24;20179;-81
2022/04/16 06:16:26;;;;;;;3.60;2.15;;;9.90;91.30;;;;;;5992288;23;20131;-82
2022/04/16 06:19:18;;;;;;;3.85;2.40;;;9.90;91.00;;;;;;6016982;23;20016;-81
2022/04/16 06:21:44;;;;;;;3.95;2.60;;;10.20;90.70;;;;;;5993675;23;20014;-81
2022/04/16 06:24:10;;;;;;;7.32;2.90;;;10.10;90.60;;;;;;5997154;23;20000;-81
2022/04/16 06:26:36;;;;;;;4.30;2.70;;;10.10;90.80;;;;;;6018177;23;20015;-81
2022/04/16 06:29:01;;;;;;;5.88;2.75;;;10.20;90.80;;;;;;6017766;23;20015;-81
2022/04/16 06:31:27;;;;;;;10.70;2.90;;;10.20;90.70;;;;;;6016715;23;20339;-82
2022/04/16 06:33:53;;;;;;;4.25;2.33;;;10.30;90.50;;;;;;6016990;23;20008;-81
2022/04/16 06:36:21;;;;;;;3.65;2.47;;;10.40;90.70;;;;;;5993881;23;20337;-81
2022/04/16 06:38:47;;;;;;;4.43;2.65;;;10.50;90.40;;;;;;5987282;23;20023;-81
2022/04/16 06:41:13;;;;;;;4.22;2.60;;;10.50;90.30;;;;;;5993745;23;19991;-81
2022/04/16 06:43:38;;;;;;;5.20;2.92;;;10.70;90.30;;;;;;6058855;23;20250;-80
2022/04/16 06:49:57;;;;;;;4.38;2.63;;;10.80;90.00;;;;;;6173873;23;20059;-83
2022/04/16 06:52:24;;;;;;;6.25;2.60;;;10.80;89.60;;;;;;6169031;23;20009;-85
2022/04/16 06:55:13;;;;;;;4.55;2.70;;;10.80;89.70;;;;;;6169266;23;20016;-81
2022/04/16 06:57:39;;;;;;;3.95;2.60;;;10.80;89.80;;;;;;6197713;23;20015;-80
2022/04/16 07:00:18;;;;;;;4.68;2.72;;;10.90;89.70;;;;;;6171285;23;20398;-82
2022/04/16 07:02:48;;;;;;;5.25;2.75;;;10.90;89.60;;;;;;6196045;23;20242;-81
2022/04/16 07:05:13;;;;;;;4.95;3.10;;;10.90;89.40;;;;;;6172305;23;20004;-80
2022/04/16 07:07:39;;;;;;;5.20;2.78;;;11.00;89.10;;;;;;6172322;23;20296;-79
2022/04/16 07:10:06;;;;;;;5.45;2.85;;;11.00;88.60;;;;;;6172601;23;20113;-80
2022/04/16 07:12:41;;;;;;;4.38;2.55;;;11.10;88.50;;;;;;6172060;23;20297;-82
2022/04/16 07:15:07;;;;;;;4.88;3.13;;;11.10;88.40;;;;;;6205368;23;20023;-80
2022/04/16 07:17:36;;;;;;;4.68;3.03;;;11.20;88.60;;;;;;6186803;23;20004;-82
2022/04/16 07:20:58;;;;;;;4.68;2.95;;;11.20;88.60;;;;;;6177229;23;20020;-79
2022/04/16 07:23:24;;;;;;;4.07;2.85;;;11.20;88.60;;;;;;6188101;22;20064;-81
2022/04/16 07:25:53;;;;;;;5.00;3.10;;;11.30;88.70;;;;;;6183548;23;20012;-81
2022/04/16 07:28:21;;;;;;;6.18;3.03;;;11.30;88.60;;;;;;6174713;23;20011;-81
2022/04/16 07:30:53;;;;;;;5.05;3.40;;;11.30;88.40;;;;;;6195633;23;20013;-80
2022/04/16 07:33:19;;;;;;;5.00;3.03;;;11.30;88.40;;;;;;6172511;23;20028;-80
2022/04/16 07:35:48;;;;;;;5.28;3.28;;;11.50;88.40;;;;;;6172358;23;20042;-80
2022/04/16 07:38:17;;;;;;;4.82;3.50;;;11.50;87.50;;;;;;6196078;23;20047;-80
2022/04/16 07:40:43;;;;;;;5.13;3.50;;;11.60;87.20;;;;;;6172313;23;20012;-81
2022/04/16 07:47:15;;;;;;;5.97;3.70;;;11.80;87.60;;;;;;6069627;23;20009;-81
2022/04/16 07:50:01;;;;;;;;;;;;;;;;;;;;;
2022/04/16 07:53:22;;;;;;;4.90;3.45;;;12.00;86.80;;;;;;6073507;23;20014;-82
2022/04/16 08:00:44;;;;;;;7.82;3.95;;;12.20;86.00;;;;;;6091000;23;20074;-79
2022/04/16 08:03:13;;;;;;;6.15;4.13;;;12.30;85.60;;;;;;6134716;23;20307;-80
2022/04/16 08:05:42;;;;;;;6.15;3.75;;;12.50;85.30;;;;;;6172181;23;20005;-81
2022/04/16 08:08:10;;;;;;;7.00;4.22;;;12.70;85.30;;;;;;6195954;23;20000;-78
2022/04/16 08:10:37;;;;;;;8.00;4.20;;;13.00;84.20;;;;;;6223181;23;20005;-81
2022/04/16 08:13:05;;;;;;;6.95;4.35;;;13.20;82.90;;;;;;6196598;23;20004;-81
2022/04/16 08:15:31;;;;;;;7.20;4.47;;;13.20;82.50;;;;;;6171621;23;20009;-79
2022/04/16 08:17:58;;;;;;;8.32;4.68;;;13.30;82.00;;;;;;6196460;23;19996;-78
2022/04/16 08:20:24;;;;;;;7.00;4.40;;;13.30;82.70;;;;;;6197814;23;20016;-79
2022/04/16 08:22:50;;;;;;;6.63;4.57;;;13.30;82.70;;;;;;6174222;23;20068;-79
2022/04/16 08:27:45;;;;;;;5.97;4.07;;;13.50;82.20;;;;;;6199487;23;20016;-77
2022/04/16 08:30:43;;;;;;;8.50;5.07;;;13.70;81.60;;;;;;6150922;23;20012;-79
2022/04/16 08:33:14;;;;;;;7.32;4.50;;;13.90;80.70;;;;;;6155188;23;20385;-79
2022/04/16 08:35:42;;;;;;;6.33;4.30;;;13.90;80.50;;;;;;6174179;23;20012;-79
2022/04/16 08:38:10;;;;;;;5.93;4.05;;;13.90;80.10;;;;;;6225696;23;20024;-80
2022/04/16 08:40:36;;;;;;;8.52;4.05;;;13.70;80.40;;;;;;6200271;23;20000;-79
2022/04/16 08:43:07;;;;;;;6.97;3.83;;;13.50;81.30;;;;;;6225560;23;20012;-80
2022/04/16 08:45:36;;;;;;;7.50;4.38;;;13.50;81.90;;;;;;6197675;23;20008;-79
2022/04/16 08:48:02;;;;;;;10.45;5.07;;;13.60;81.10;;;;;;6173096;23;19996;-80
2022/04/16 08:50:29;;;;;;;7.15;4.68;;;13.50;80.90;;;;;;6197990;23;20037;-78
2022/04/16 08:52:57;;;;;;;8.10;4.65;;;13.30;81.40;;;;;;6198262;23;20278;-85
2022/04/16 08:55:23;;;;;;;7.32;4.80;;;13.50;81.50;;;;;;6173771;23;20156;-79
2022/04/16 08:57:48;;;;;;;7.50;4.50;;;13.50;81.10;;;;;;6173839;23;20008;-81
2022/04/16 09:00:15;;;;;;;8.20;4.65;;;13.30;81.70;;;;;;6197166;23;20001;-80
2022/04/16 09:02:53;;;;;;;8.18;4.72;;;13.30;81.90;;;;;;6198921;23;19997;-79
2022/04/16 09:05:19;;;;;;;6.83;4.83;;;13.30;82.00;;;;;;6144795;23;20243;-82
2022/04/16 09:07:50;;;;;;;8.02;5.18;;;13.30;82.20;;;;;;6168833;23;20291;-81
2022/04/16 09:10:16;;;;;;;11.38;5.90;;;13.30;82.70;;;;;;6168487;23;20305;-80
2022/04/16 09:12:42;;;;;;;10.35;6.15;;;13.30;82.60;;;;;;6194196;23;20068;-81
2022/04/16 09:15:09;;;;;;;10.20;5.88;;;13.30;82.40;;;;;;6167707;23;20043;-80
2022/04/16 09:17:37;;;;;;;8.97;5.90;;;13.20;82.70;;;;;;6169557;23;20034;-80
2022/04/16 09:20:09;;;;;;;8.93;5.45;;;13.00;83.30;;;;;;6168787;23;20300;-81
2022/04/16 09:22:38;;;;;;;9.18;6.05;;;13.00;84.00;;;;;;6169219;23;20005;-81
2022/04/16 09:25:12;;;;;;;15.75;7.13;;;12.80;83.90;;;;;;6167132;23;19989;-82
2022/04/16 09:27:51;;;;;;;9.65;6.20;;;12.80;84.10;;;;;;6144950;23;20163;-81
2022/04/16 09:30:30;;;;;;;8.82;6.20;;;12.70;84.20;;;;;;6168196;23;20001;-81
2022/04/16 09:32:57;;;;;;;9.95;6.43;;;12.80;84.90;;;;;;6144214;23;20012;-80
2022/04/16 09:35:36;;;;;;;9.40;6.10;;;13.00;84.40;;;;;;6195738;23;20000;-83
2022/04/16 09:38:06;;;;;;;9.68;6.45;;;13.00;84.20;;;;;;6169371;23;20325;-80
2022/04/16 09:40:34;;;;;;;9.60;6.18;;;13.10;83.70;;;;;;6146059;23;20005;-78
2022/04/16 09:43:06;;;;;;;9.23;6.15;;;12.90;83.30;;;;;;6168732;23;20008;-81
2022/04/16 09:45:32;;;;;;;8.55;5.40;;;12.80;83.80;;;;;;6168700;23;20009;-82
2022/04/16 09:47:59;;;;;;;8.05;5.35;;;12.70;84.00;;;;;;6168968;23;20008;-80
2022/04/16 09:50:32;;;;;;;10.13;5.60;;;12.80;84.50;;;;;;6170497;23;19997;-81
2022/04/16 09:53:02;;;;;;;10.55;5.82;;;12.80;84.30;;;;;;6168788;23;20001;-80
2022/04/16 09:59:47;;;;;;;8.52;5.15;;;13.20;82.80;;;;;;6194652;23;20057;-81
2022/04/16 10:02:34;;;;;;;7.22;4.97;;;13.60;80.40;;;;;;6192788;23;20020;-81
2022/04/16 10:14:54;;;;;;;6.57;4.93;;;15.00;75.70;;;;;;6170853;23;20079;-80
2022/04/16 10:17:24;;;;;;;8.18;4.93;;;15.80;74.10;;;;;;6166528;23;20066;-81
2022/04/16 10:19:50;;;;;;;8.45;4.95;;;16.40;72.60;;;;;;6143800;23;20020;-81
2022/04/16 10:22:24;;;;;;;7.93;5.30;;;16.40;70.80;;;;;;6143444;23;20000;-80
2022/04/16 10:24:57;;;;;;;9.15;5.60;;;16.20;71.60;;;;;;6194413;23;20005;-79
2022/04/16 10:27:27;;;;;;;8.77;5.57;;;15.90;72.00;;;;;;6143477;23;20168;-81
2022/04/16 10:30:07;;;;;;;9.20;6.07;;;15.60;72.40;;;;;;6144547;23;20005;-80
2022/04/16 10:32:41;;;;;;;8.20;5.68;;;15.40;72.70;;;;;;6143262;23;20090;-80
2022/04/16 10:35:13;;;;;;;9.10;5.63;;;15.10;73.80;;;;;;6142498;23;20076;-80
2022/04/16 10:37:40;;;;;;;8.52;5.47;;;15.20;73.90;;;;;;6143562;23;20013;-81
2022/04/16 10:40:20;;;;;;;8.27;5.72;;;15.10;73.50;;;;;;6142777;23;20012;-80
2022/04/16 10:42:52;;;;;;;6.28;4.47;;;15.10;73.40;;;;;;6167804;23;20214;-80
2022/04/16 10:45:18;;;;;;;8.75;4.90;;;15.10;73.10;;;;;;6141940;23;20007;-82
2022/04/16 10:47:44;;;;;;;7.38;4.53;;;15.20;72.70;;;;;;6168483;23;20301;-79
2022/04/16 10:50:18;;;;;;;6.93;4.40;;;15.40;71.70;;;;;;6167029;23;20202;-81
2022/04/16 10:52:56;;;;;;;6.60;4.28;;;15.40;72.10;;;;;;6193816;23;20001;-80
2022/04/16 10:55:30;;;;;;;7.47;4.85;;;15.60;70.60;;;;;;6142449;23;20020;-81
2022/04/16 10:58:00;;;;;;;7.40;4.75;;;15.50;70.60;;;;;;6167429;23;20330;-82
2022/04/16 11:01:28;;;;;;;;;;;;;;;;;;;;;
2022/04/16 11:12:03;;;;;;;5.00;3.15;;;15.70;69.60;;;;;;6030611;23;20047;-81
2022/04/16 11:14:34;;;;;;;4.95;2.95;;;16.10;69.80;;;;;;6070667;23;20018;-80
2022/04/16 11:21:24;;;;;;;5.45;3.40;;;16.20;67.10;;;;;;6171780;23;20066;-81
2022/04/16 11:24:36;;;;;;;6.38;4.22;;;16.30;67.00;;;;;;6124060;23;20070;-81
2022/04/16 11:35:59;;;;;;;5.72;3.72;;;15.50;68.20;;;;;;6078831;23;20017;-81
2022/04/16 11:38:30;;;;;;;6.40;3.67;;;15.40;69.20;;;;;;6053906;23;20011;-80
2022/04/16 11:41:00;;;;;;;4.88;3.45;;;15.50;67.70;;;;;;6054782;23;20002;-79
2022/04/16 11:43:30;;;;;;;5.65;3.55;;;15.50;67.70;;;;;;6054137;23;20014;-81
2022/04/16 11:45:57;;;;;;;7.85;4.35;;;15.60;67.70;;;;;;6041222;23;20260;-79
2022/04/16 11:48:23;;;;;;;8.27;4.30;;;15.70;68.30;;;;;;6077560;23;20103;-80
2022/04/16 11:50:50;;;;;;;5.63;3.88;;;15.90;67.50;;;;;;6078694;23;20014;-79
2022/04/16 11:53:16;;;;;;;7.43;4.15;;;16.10;66.80;;;;;;6101898;23;20002;-80
2022/04/16 11:55:46;;;;;;;6.60;3.92;;;16.20;66.60;;;;;;6054391;23;20042;-80
2022/04/16 11:58:12;;;;;;;5.97;3.70;;;16.30;65.20;;;;;;6077571;23;20006;-81
2022/04/16 12:00:55;;;;;;;5.78;3.80;;;17.30;64.20;;;;;;6101752;23;20011;-80
2022/04/16 12:03:22;;;;;;;4.88;3.30;;;18.00;62.80;;;;;;6078088;23;20308;-81
2022/04/16 12:05:50;;;;;;;5.32;3.35;;;19.40;60.50;;;;;;6134664;23;20021;-82
2022/04/16 12:08:19;;;;;;;5.05;3.25;;;20.80;57.10;;;;;;6112843;23;20064;-81
2022/04/16 12:10:49;;;;;;;5.18;3.67;;;20.40;56.40;;;;;;6113048;23;20002;-81
2022/04/16 12:13:15;;;;;;;5.13;3.58;;;18.80;58.40;;;;;;6136797;23;20001;-82
2022/04/16 12:15:42;;;;;;;5.18;3.60;;;18.00;59.80;;;;;;6137321;23;20017;-81
2022/04/16 12:18:09;;;;;;;5.28;3.20;;;18.00;60.60;;;;;;6137303;23;20005;-81
2022/04/16 12:20:41;;;;;;;4.53;2.88;;;19.90;58.70;;;;;;6137175;23;20044;-82
2022/04/16 12:23:10;;;;;;;5.07;3.33;;;22.80;54.30;;;;;;6112499;23;20009;-80
2022/04/16 12:25:37;;;;;;;4.55;3.25;;;24.40;52.00;;;;;;6137695;23;20076;-81
2022/04/16 12:28:08;;;;;;;4.60;3.15;;;25.40;49.80;;;;;;6137582;23;20059;-81
2022/04/16 12:30:35;;;;;;;4.50;2.92;;;26.10;48.80;;;;;;6136744;23;20016;-81
2022/04/16 12:33:06;;;;;;;4.15;3.05;;;27.00;47.60;;;;;;6137347;23;20054;-81
2022/04/16 12:35:35;;;;;;;4.13;2.95;;;26.20;48.10;;;;;;6113362;23;20016;-82
2022/04/16 12:41:50;;;;;;;6.72;3.17;;;27.10;47.20;;;;;;6163616;23;20008;-81
2022/04/16 12:44:16;;;;;;;4.10;2.77;;;28.20;46.10;;;;;;6137352;23;20006;-81
2022/04/16 12:46:42;;;;;;;4.88;2.72;;;26.30;46.70;;;;;;6136703;23;20069;-83
2022/04/16 12:49:07;;;;;;;4.10;2.90;;;25.10;46.80;;;;;;6161518;23;20243;-80
2022/04/16 12:51:33;;;;;;;3.72;2.65;;;23.90;47.60;;;;;;6137432;23;20064;-82
2022/04/16 12:53:59;;;;;;;3.97;2.97;;;24.60;48.30;;;;;;6137103;23;20006;-81
2022/04/16 12:56:25;;;;;;;4.45;2.95;;;26.30;47.20;;;;;;6136975;23;20006;-83
2022/04/16 12:58:51;;;;;;;3.75;2.67;;;27.30;45.30;;;;;;6137060;23;20230;-81
2022/04/16 13:01:17;;;;;;;4.82;2.72;;;29.30;44.60;;;;;;6136054;23;20017;-80
2022/04/16 13:03:44;;;;;;;4.25;3.35;;;30.00;44.10;;;;;;6137974;23;20002;-82
2022/04/16 13:06:11;;;;;;;3.80;3.00;;;28.60;43.20;;;;;;6163639;23;20016;-81
2022/04/16 13:08:36;;;;;;;4.32;2.95;;;26.60;45.00;;;;;;6165311;23;20316;-81
2022/04/16 13:11:06;;;;;;;3.55;2.80;;;26.90;45.10;;;;;;6139031;23;20010;-81
2022/04/16 13:13:32;;;;;;;4.70;2.90;;;29.00;44.60;;;;;;6164125;23;20007;-82
2022/04/16 13:15:58;;;;;;;3.60;2.38;;;28.90;43.40;;;;;;6138223;23;20172;-81
2022/04/16 13:19:23;;;;;;;3.47;2.50;;;29.40;43.30;;;;;;6138395;23;20006;-82
2022/04/16 13:42:55;;;;;;;3.42;2.65;;;31.80;41.70;;;;;;6191259;23;20020;-81
2022/04/16 13:45:21;;;;;;;3.80;2.67;;;32.00;41.80;;;;;;6142488;23;20025;-81
2022/04/16 13:47:47;;;;;;;4.40;2.28;;;32.50;40.90;;;;;;6144373;23;20001;-82
2022/04/16 13:50:13;;;;;;;4.03;2.53;;;32.30;40.90;;;;;;6193667;23;19997;-82
2022/04/16 13:52:39;;;;;;;3.58;2.30;;;31.70;41.00;;;;;;6168569;23;20331;-79
2022/04/16 13:55:08;;;;;;;3.38;2.42;;;32.30;41.30;;;;;;6168287;23;19997;-82
2022/04/16 13:57:34;;;;;;;3.60;2.20;;;32.70;40.60;;;;;;6143354;23;20020;-82
2022/04/16 13:59:59;;;;;;;3.13;2.10;;;34.20;40.10;;;;;;6168462;23;19992;-81
2022/04/16 14:02:25;;;;;;;3.88;2.50;;;34.50;39.20;;;;;;6167004;23;20024;-82
2022/04/16 14:07:35;;;;;;;4.03;2.40;;;33.90;39.20;;;;;;6193905;23;20065;-81
2022/04/16 14:10:01;;;;;;;4.40;2.38;;;33.40;39.20;;;;;;6168385;23;20001;-80
2022/04/16 14:12:28;;;;;;;2.70;1.80;;;33.10;39.40;;;;;;6167277;23;20028;-81
2022/04/16 14:14:53;;;;;;;3.43;2.13;;;32.90;40.50;;;;;;6168083;23;20009;-83
2022/04/16 14:17:19;;;;;;;4.13;2.13;;;33.80;39.60;;;;;;6167042;23;20280;-81
2022/04/16 14:19:45;;;;;;;3.67;2.47;;;34.10;39.30;;;;;;6168309;23;20015;-81
2022/04/16 14:22:11;;;;;;;3.65;2.30;;;34.20;38.90;;;;;;6194346;23;20001;-82
2022/04/16 14:25:23;;;;;;;2.92;2.10;;;33.40;39.50;;;;;;6168335;23;20294;-80
2022/04/16 14:27:50;;;;;;;3.25;2.40;;;34.20;39.40;;;;;;6143632;23;20004;-81
2022/04/16 14:30:20;;;;;;;3.83;2.20;;;34.10;39.00;;;;;;6141769;23;20141;-82
2022/04/16 14:32:49;;;;;;;3.20;2.20;;;34.30;39.10;;;;;;6145113;23;20013;-82
2022/04/16 14:35:15;;;;;;;3.25;2.30;;;34.60;38.40;;;;;;6143290;23;20016;-82
2022/04/16 14:37:40;;;;;;;3.45;2.58;;;33.00;39.30;;;;;;6168312;23;20001;-84
2022/04/16 14:40:07;;;;;;;3.42;2.30;;;31.80;39.80;;;;;;6167571;23;20009;-80
2022/04/16 16:34:46;;;;;;;3.13;1.67;;;30.00;35.30;;;;;;6185004;23;20072;-82
2022/04/16 16:37:12;;;;;;;3.45;1.52;;;30.70;34.80;;;;;;6193035;23;20298;-83
2022/04/16 16:43:29;;;;;;;2.17;1.50;;;30.60;34.30;;;;;;6193582;23;20016;-81
2022/04/16 16:45:55;;;;;;;3.75;1.65;;;29.80;34.50;;;;;;6143483;23;20009;-80
2022/04/16 16:48:21;;;;;;;3.15;1.50;;;29.20;34.60;;;;;;6192759;23;20243;-82
2022/04/16 16:50:47;;;;;;;2.75;1.77;;;28.60;34.90;;;;;;6143658;23;20294;-82
2022/04/16 16:53:13;;;;;;;2.72;1.30;;;28.70;35.60;;;;;;6194604;23;20000;-82
2022/04/16 16:55:39;;;;;;;1.98;1.27;;;28.90;34.40;;;;;;6143632;23;20033;-82
2022/04/16 16:58:05;;;;;;;2.20;1.25;;;28.30;34.70;;;;;;6168553;23;20010;-82
2022/04/16 17:00:31;;;;;;;2.55;1.25;;;28.10;34.50;;;;;;6167116;23;20009;-81
2022/04/16 17:05:43;;;;;;;2.10;1.30;;;28.30;36.40;;;;;;6163982;23;20441;-79
2022/04/16 17:08:09;;;;;;;3.03;1.50;;;27.50;34.50;;;;;;6139073;23;20002;-81
2022/04/16 17:10:37;;;;;;;3.03;1.27;;;26.10;35.90;;;;;;6162970;23;20002;-82
2022/04/16 17:13:02;;;;;;;2.20;1.38;;;24.80;35.90;;;;;;6139234;23;20005;-81
2022/04/16 17:20:57;;;;;;;3.22;1.77;;;20.60;40.40;;;;;;6163812;23;20224;-81
2022/04/16 17:23:23;;;;;;;3.13;1.80;;;19.70;41.10;;;;;;6164225;23;19996;-82
2022/04/16 17:25:49;;;;;;;2.78;1.33;;;18.70;42.10;;;;;;6163198;23;20261;-81
2022/04/16 17:28:15;;;;;;;3.55;1.40;;;17.90;44.10;;;;;;6164056;23;20005;-83
2022/04/16 17:30:42;;;;;;;2.60;1.55;;;17.60;43.90;;;;;;6163247;23;20020;-82
2022/04/16 17:33:07;;;;;;;3.05;1.83;;;17.20;44.90;;;;;;6133090;23;20306;-81
2022/04/16 17:35:33;;;;;;;5.60;2.10;;;16.70;44.50;;;;;;6158330;23;20002;-80
2022/04/16 17:38:00;;;;;;;4.68;1.90;;;16.40;45.00;;;;;;6133290;23;20042;-80
2022/04/16 17:40:27;;;;;;;3.85;2.25;;;16.00;45.60;;;;;;6133270;23;20225;-82
2022/04/16 17:42:53;;;;;;;3.40;1.52;;;15.70;46.00;;;;;;6135119;23;20311;-80
2022/04/16 17:45:19;;;;;;;3.90;1.85;;;15.50;46.00;;;;;;6133240;23;20018;-81
2022/04/16 17:47:45;;;;;;;3.20;1.60;;;15.40;46.50;;;;;;6157786;23;20036;-81
2022/04/16 17:50:14;;;;;;;4.00;2.42;;;15.20;47.60;;;;;;6135412;23;20006;-81
2022/04/16 17:52:41;;;;;;;2.63;1.60;;;15.00;48.60;;;;;;6133377;23;20144;-82
2022/04/16 17:55:08;;;;;;;4.25;1.75;;;14.80;47.60;;;;;;6111715;23;19997;-81
2022/04/16 17:57:33;;;;;;;3.22;1.73;;;14.60;47.80;;;;;;6136876;23;20052;-79
2022/04/16 18:00:00;;;;;;;2.88;1.60;;;14.30;48.50;;;;;;6195150;23;20016;-81
2022/04/16 18:02:26;;;;;;;3.60;1.48;;;14.20;48.80;;;;;;6166186;23;20043;-81
2022/04/16 18:04:52;;;;;;;5.85;2.00;;;14.10;49.00;;;;;;6142692;23;20007;-81
2022/04/16 18:07:20;;;;;;;5.30;1.67;;;13.90;50.00;;;;;;6192063;23;20005;-81
2022/04/16 18:09:46;;;;;;;3.80;1.90;;;13.70;50.10;;;;;;6191263;23;20231;-80
2022/04/16 18:12:13;;;;;;;3.85;1.70;;;13.60;50.70;;;;;;6142096;23;20000;-80
2022/04/16 18:14:39;;;;;;;4.18;2.00;;;13.50;51.50;;;;;;6165221;23;20015;-80
2022/04/16 18:17:08;;;;;;;3.38;1.77;;;13.40;51.90;;;;;;6165808;23;20017;-82
2022/04/16 18:19:34;;;;;;;3.72;1.95;;;13.20;52.20;;;;;;6141521;23;20062;-79
2022/04/16 18:22:00;;;;;;;3.13;1.83;;;13.10;52.20;;;;;;6142072;23;20067;-81
2022/04/16 18:24:27;;;;;;;3.90;1.90;;;13.00;52.50;;;;;;6141691;23;20275;-81
2022/04/16 18:27:23;;;;;;;2.65;1.50;;;12.80;53.60;;;;;;6142179;23;20001;-83
2022/04/16 18:29:50;;;;;;;2.58;1.55;;;12.80;53.60;;;;;;6139756;23;20062;-81
2022/04/16 18:32:15;;;;;;;3.85;1.60;;;12.70;53.80;;;;;;6122999;23;20014;-79
2022/04/16 18:34:41;;;;;;;2.58;1.60;;;12.60;54.40;;;;;;6086562;23;20045;-79
2022/04/16 18:37:08;;;;;;;3.75;1.40;;;12.50;55.10;;;;;;6108542;23;20002;-82
2022/04/16 18:39:34;;;;;;;3.78;1.70;;;12.40;55.10;;;;;;6134084;23;20173;-83
2022/04/16 18:42:05;;;;;;;3.47;1.83;;;12.40;55.00;;;;;;6108147;23;20002;-81
2022/04/16 18:44:37;;;;;;;16.67;7.75;;;12.30;55.00;;;;;;6133518;23;20002;-79
2022/04/16 18:47:04;;;;;;;12.80;6.50;;;12.20;54.90;;;;;;6103015;23;20034;-79
2022/04/16 18:49:32;;;;;;;7.15;3.35;;;12.10;55.70;;;;;;6103229;23;20037;-81
2022/04/16 18:52:04;;;;;;;4.18;2.42;;;12.00;55.50;;;;;;6080298;23;19995;-82
2022/04/16 18:54:31;;;;;;;6.10;2.85;;;11.90;55.70;;;;;;6105490;23;20291;-80
2022/04/16 18:57:00;;;;;;;4.30;2.35;;;11.90;56.30;;;;;;6103545;23;20007;-80
2022/04/16 18:59:26;;;;;;;3.55;2.00;;;11.70;56.20;;;;;;6050884;23;20178;-82
2022/04/16 19:07:21;;;;;;;5.10;2.75;;;11.50;57.20;;;;;;6107119;23;20068;-84
2022/04/16 19:09:48;;;;;;;4.68;2.40;;;11.50;57.60;;;;;;6106813;23;20010;-83
2022/04/16 19:12:20;;;;;;;6.03;3.55;;;11.40;57.60;;;;;;6107531;23;19994;-82
2022/04/16 19:15:12;;;;;;;4.68;3.08;;;11.30;57.70;;;;;;6082682;23;20171;-82
2022/04/16 19:18:04;;;;;;;5.30;3.20;;;11.30;58.60;;;;;;6043189;23;20030;-83
2022/04/16 19:20:40;;;;;;;5.65;3.20;;;11.20;58.50;;;;;;6034418;23;20021;-82
2022/04/16 19:23:15;;;;;;;6.97;2.80;;;11.20;59.30;;;;;;6026361;23;20017;-81
2022/04/16 19:25:41;;;;;;;5.43;2.88;;;11.10;59.00;;;;;;6049342;23;20015;-81
2022/04/16 19:28:07;;;;;;;4.75;2.95;;;11.10;59.00;;;;;;6025242;23;20296;-81
2022/04/16 19:30:33;;;;;;;7.30;3.88;;;11.00;59.60;;;;;;6023800;23;20070;-81
2022/04/16 19:32:59;;;;;;;7.38;3.50;;;10.90;59.70;;;;;;6048369;23;20018;-81
2022/04/16 19:35:25;;;;;;;8.45;3.28;;;10.80;60.50;;;;;;6049308;23;20010;-84
2022/04/16 19:37:51;;;;;;;5.15;2.95;;;10.70;60.50;;;;;;6025490;23;20231;-83
2022/04/16 19:40:16;;;;;;;5.80;2.95;;;10.80;60.80;;;;;;6025797;23;20045;-82
2022/04/16 19:42:42;;;;;;;5.28;3.15;;;10.70;61.00;;;;;;6049320;23;20070;-81
2022/04/16 19:48:35;;;;;;;7.43;3.03;;;10.60;61.60;;;;;;6101714;23;20060;-81
2022/04/16 19:51:29;;;;;;;5.10;2.78;;;10.50;62.20;;;;;;6134283;23;19998;-81
2022/04/16 19:53:55;;;;;;;5.03;2.45;;;10.40;62.20;;;;;;6097770;23;20489;-81
2022/04/16 19:56:21;;;;;;;4.53;2.20;;;10.30;62.80;;;;;;6107758;23;20002;-82
2022/04/16 19:58:49;;;;;;;4.55;2.20;;;10.40;62.40;;;;;;6108018;23;20307;-83
2022/04/16 20:01:15;;;;;;;3.70;2.03;;;10.50;63.00;;;;;;6131766;23;20014;-81
2022/04/16 20:03:45;;;;;;;4.18;2.00;;;10.50;62.90;;;;;;6132053;23;20271;-81
2022/04/16 20:06:12;;;;;;;3.50;2.00;;;10.40;63.40;;;;;;6134167;23;20053;-82
2022/04/16 20:11:25;;;;;;;4.38;2.33;;;10.40;63.50;;;;;;6132498;23;20300;-82
2022/04/16 20:13:51;;;;;;;3.40;2.00;;;10.40;63.20;;;;;;6133496;23;20249;-83
2022/04/16 20:16:18;;;;;;;4.47;2.30;;;10.30;63.50;;;;;;6107230;23;20068;-80
2022/04/16 20:18:43;;;;;;;4.75;2.30;;;10.20;63.90;;;;;;6108065;23;20024;-81
2022/04/16 20:21:10;;;;;;;3.55;1.75;;;10.00;64.10;;;;;;6085294;23;20296;-79
2022/04/16 20:26:49;;;;;;;3.90;1.60;;;10.00;64.70;;;;;;6133063;23;20102;-80
2022/04/16 20:29:17;;;;;;;4.63;1.90;;;9.90;65.40;;;;;;6108910;23;20017;-81
2022/04/16 20:31:42;;;;;;;4.25;2.22;;;9.90;65.10;;;;;;6078654;23;20014;-81
2022/04/16 20:34:08;;;;;;;4.93;2.22;;;9.90;65.30;;;;;;6079230;23;20038;-80
2022/04/16 20:36:34;;;;;;;4.68;2.10;;;9.80;65.50;;;;;;6079139;23;20003;-81
2022/04/16 20:39:09;;;;;;;3.45;1.90;;;9.80;65.80;;;;;;6056036;23;20009;-81
2022/04/16 20:47:06;;;;;;;6.22;2.90;;;9.40;67.20;;;;;;6127739;23;20026;-81
2022/04/16 20:49:33;;;;;;;5.05;2.40;;;9.30;68.00;;;;;;6085320;23;20303;-81
2022/04/16 20:54:43;;;;;;;4.68;2.35;;;9.30;69.10;;;;;;6109127;23;20006;-81
2022/04/16 20:57:09;;;;;;;9.15;4.30;;;9.20;68.40;;;;;;6085748;23;20008;-82
2022/04/16 20:59:35;;;;;;;6.47;3.28;;;9.20;68.20;;;;;;6109713;23;20288;-81
2022/04/16 21:02:01;;;;;;;6.18;2.97;;;9.30;68.20;;;;;;6108765;23;20020;-81
2022/04/16 21:04:27;;;;;;;5.57;3.15;;;9.10;68.50;;;;;;6139169;23;20017;-81
2022/04/16 21:06:53;;;;;;;6.15;3.10;;;9.20;68.80;;;;;;6138551;23;20032;-81
2022/04/16 21:09:18;;;;;;;6.57;2.63;;;9.10;69.00;;;;;;6138644;23;20293;-81
2022/04/16 21:11:44;;;;;;;4.78;2.58;;;9.00;69.90;;;;;;6126451;23;20002;-81
2022/04/16 21:14:10;;;;;;;8.13;2.47;;;9.00;69.30;;;;;;6103444;23;20343;-81
2022/04/16 21:16:36;;;;;;;5.82;2.58;;;9.10;69.40;;;;;;6103801;23;20158;-83
2022/04/16 21:19:22;;;;;;;5.55;2.55;;;9.00;69.90;;;;;;6083682;23;20011;-82
2022/04/16 21:21:50;;;;;;;7.78;3.58;;;9.00;69.90;;;;;;6127695;23;20262;-82
2022/04/16 21:24:16;;;;;;;6.05;3.40;;;9.00;69.50;;;;;;6104196;23;20049;-81
2022/04/16 21:26:41;;;;;;;6.25;3.35;;;8.90;70.50;;;;;;6090704;23;20292;-82
2022/04/16 21:29:08;;;;;;;5.72;3.17;;;8.90;70.30;;;;;;6131674;23;20044;-81
2022/04/16 21:31:34;;;;;;;7.20;3.53;;;8.80;70.60;;;;;;6145981;23;20010;-80
2022/04/16 21:34:01;;;;;;;5.53;2.90;;;8.80;70.50;;;;;;6131696;23;20013;-82
2022/04/16 21:36:40;;;;;;;5.10;2.88;;;8.70;71.50;;;;;;6108642;23;20126;-82
2022/04/16 21:39:06;;;;;;;4.43;2.50;;;8.60;71.60;;;;;;6132998;23;20013;-83
2022/04/16 21:41:31;;;;;;;4.97;2.42;;;8.50;72.20;;;;;;6132958;23;20009;-82
2022/04/16 21:43:57;;;;;;;7.20;2.70;;;8.50;71.70;;;;;;6109350;23;20061;-80
2022/04/16 21:46:23;;;;;;;7.68;2.83;;;8.50;71.90;;;;;;6108590;23;20292;-82
2022/04/16 21:48:50;;;;;;;6.45;3.25;;;8.50;72.20;;;;;;6084830;23;20080;-82
2022/04/16 21:51:16;;;;;;;7.95;3.08;;;8.40;71.90;;;;;;6085501;23;20021;-82
2022/04/16 21:58:07;;;;;;;4.68;2.13;;;8.40;69.80;;;;;;6135490;23;20045;-81
2022/04/16 22:01:19;;;;;;;5.20;2.25;;;8.50;68.40;;;;;;6111651;23;20103;-81
2022/04/16 22:03:48;;;;;;;6.03;2.50;;;8.50;68.40;;;;;;6085487;23;20061;-81
2022/04/16 22:06:18;;;;;;;4.57;2.20;;;8.40;68.10;;;;;;6085515;23;20009;-81
2022/04/16 22:08:47;;;;;;;3.78;2.10;;;8.40;69.00;;;;;;6108911;23;20059;-80
2022/04/16 22:11:15;;;;;;;5.35;2.33;;;8.40;68.00;;;;;;6085346;23;19998;-80
2022/04/16 22:13:46;;;;;;;3.88;2.55;;;8.30;68.20;;;;;;6108939;23;20054;-82
2022/04/16 22:16:13;;;;;;;6.40;2.72;;;8.30;68.00;;;;;;6093130;23;20085;-81